Portada
METAR-TAF:

METAR-TAF

Aeropuertos :

Aeropuerto de Melilla

Melilla, España

latitud: 35-17N, longitud: 002-57W, altitud: 47 m

Observación

El informe se hizo hace 16 minutos, a las 01:30 UTC
Viento 2 kt con dirección variable
Temperatura 11°C
Humedad 82%
Presión 1019 hPa
Visibilidad 10 km o más
sin nubes por debajo de 1500 m y sin presencia de cumulonimbus.

METAR: GEML 240130Z AUTO VRB02KT CAVOK 11/08 Q1019

Hora: 02:46 (01:46 UTC)

Pronóstico

El informe se hizo hace 5 horas y 46 minutos, a las 20:00 UTC
Pronóstico válido del 23 a las 21 UTC al 24 a las 21 UTC
Viento 5 kt del sur-suroeste
Visibilidad 10 km o más
Escasas nubes a una altura de 2000 ft

TAF: GEML 232000Z 2321/2421 21005KT 9999 FEW020 TX19/2415Z TN09/2406Z

Observaciones y pronósticos meteorológicos de más de 4000 aeropuertos (mensajes METAR y TAF).

Los puntos amarillos y rojos representan las estaciones disponibles.

Ponga el ratón en el punto deseado para ver el nombre de la estación.

Haga clic para ver las observaciones y los pronósticos meteorológicos.

Para cambiar el mapa : haga clic en los botones verdes con una cruz de color negro para hacer un zoom, en el botón verde con un guión para alejar o en las flechas verdes para mapas adyacentes.


METAR-TAF: